Time;durP1;ratioP1;P1;durP2;ratioP2;P2;SDS_P1;SDS_P2;PMS_P1;PMS_P2;Temp;Humidity;BMP_temperature;BMP_pressure;BME280_temperature;BME280_humidity;BME280_pressure;Samples;Min_cycle;Max_cycle;Signal;HPM_P1;HPM_P2
2023/03/28 00:00:38;;;;;;;8.05;1.70;;;2.50;99.90;;;;;;15500210;22;20020;-81
2023/03/28 00:06:44;;;;;;;10.93;1.50;;;2.60;99.90;;;;;;15497613;23;20028;-80
2023/03/28 00:12:46;;;;;;;9.38;1.60;;;2.60;99.90;;;;;;15495261;22;20102;-80
2023/03/28 00:18:49;;;;;;;12.05;1.63;;;2.60;99.90;;;;;;15496304;23;20027;-80
2023/03/28 00:24:53;;;;;;;8.20;1.50;;;2.60;99.90;;;;;;15497302;23;20032;-79
2023/03/28 00:31:02;;;;;;;13.40;1.60;;;2.60;99.90;;;;;;15501675;22;20123;-80
2023/03/28 00:37:04;;;;;;;8.30;1.58;;;2.50;99.90;;;;;;15500149;22;20030;-80
2023/03/28 00:43:11;;;;;;;18.27;1.92;;;2.50;99.90;;;;;;15501708;22;20477;-80
2023/03/28 00:49:24;;;;;;;13.80;1.70;;;2.40;99.90;;;;;;15497960;22;20525;-81
2023/03/28 00:55:49;;;;;;;13.40;1.60;;;2.40;99.90;;;;;;15494599;23;20031;-80
2023/03/28 01:01:54;;;;;;;11.43;1.63;;;2.20;99.90;;;;;;15497116;23;20473;-80
2023/03/28 01:08:17;;;;;;;17.80;2.33;;;2.30;99.90;;;;;;15494375;23;20047;-80
2023/03/28 01:14:21;;;;;;;17.58;1.70;;;2.30;99.90;;;;;;15493439;22;20518;-81
2023/03/28 01:20:45;;;;;;;9.70;1.60;;;2.20;99.90;;;;;;15488559;23;20020;-81
2023/03/28 01:27:03;;;;;;;8.20;1.17;;;2.30;99.90;;;;;;15492621;23;20078;-80
2023/03/28 01:33:29;;;;;;;9.80;2.30;;;2.20;99.90;;;;;;15492899;22;20085;-80
2023/03/28 01:39:42;;;;;;;12.52;1.73;;;2.20;99.90;;;;;;15489725;23;20020;-81
2023/03/28 01:45:56;;;;;;;17.15;2.22;;;2.10;99.90;;;;;;15492151;23;20352;-80
2023/03/28 01:52:23;;;;;;;11.13;1.52;;;2.20;99.90;;;;;;15507545;22;20094;-80
2023/03/28 01:58:39;;;;;;;9.20;1.65;;;2.10;99.90;;;;;;15505867;23;20042;-81
2023/03/28 02:04:44;;;;;;;10.75;1.48;;;2.10;99.90;;;;;;15505124;23;20048;-81
2023/03/28 02:10:48;;;;;;;13.25;2.10;;;2.10;99.90;;;;;;15506372;22;20070;-80
2023/03/28 02:16:56;;;;;;;14.57;2.00;;;2.00;99.90;;;;;;15504641;23;20016;-80
2023/03/28 02:23:08;;;;;;;11.30;1.42;;;1.90;99.90;;;;;;15502334;22;20468;-80
2023/03/28 02:29:11;;;;;;;15.82;1.60;;;1.90;99.90;;;;;;15507865;22;20043;-81
2023/03/28 02:35:13;;;;;;;16.05;1.67;;;1.90;99.90;;;;;;15508252;22;20026;-79
2023/03/28 02:41:42;;;;;;;13.45;1.70;;;1.90;99.90;;;;;;15508599;23;20123;-81
2023/03/28 02:48:00;;;;;;;14.40;1.73;;;2.00;99.90;;;;;;15496512;23;20031;-80
2023/03/28 02:54:58;;;;;;;12.05;2.88;;;2.00;99.90;;;;;;15509462;23;20024;-79
2023/03/28 03:01:02;;;;;;;15.38;1.90;;;2.00;99.90;;;;;;15482157;23;20031;-81
2023/03/28 03:07:07;;;;;;;9.45;1.70;;;2.00;99.90;;;;;;15505286;23;20020;-81
2023/03/28 03:13:09;;;;;;;9.70;1.75;;;2.10;99.90;;;;;;15510254;22;20012;-81
2023/03/28 03:19:11;;;;;;;15.70;1.92;;;2.10;99.90;;;;;;15503873;23;20095;-81
2023/03/28 03:25:14;;;;;;;15.82;2.00;;;2.00;99.90;;;;;;15509452;23;20070;-81
2023/03/28 03:31:18;;;;;;;7.05;1.30;;;2.00;99.90;;;;;;15483754;22;20022;-80
2023/03/28 03:37:21;;;;;;;7.57;1.63;;;1.90;99.90;;;;;;15507945;22;20078;-81
2023/03/28 03:43:23;;;;;;;14.18;1.73;;;1.90;99.90;;;;;;15505364;23;20020;-81
2023/03/28 03:49:25;;;;;;;18.30;2.17;;;1.90;99.90;;;;;;15507029;23;20047;-81
2023/03/28 03:55:27;;;;;;;16.33;1.55;;;2.10;99.90;;;;;;15501402;23;20027;-81
2023/03/28 04:01:29;;;;;;;10.05;1.70;;;2.00;99.90;;;;;;15490793;23;20337;-81
2023/03/28 04:07:31;;;;;;;15.43;1.75;;;2.10;99.90;;;;;;15507701;23;20021;-82
2023/03/28 04:13:33;;;;;;;10.82;1.38;;;2.00;99.90;;;;;;15507149;22;20051;-81
2023/03/28 04:19:39;;;;;;;21.52;1.90;;;2.00;99.90;;;;;;15502240;23;20017;-81
2023/03/28 04:25:41;;;;;;;12.88;1.88;;;2.00;99.90;;;;;;15507020;23;20020;-81
2023/03/28 04:31:48;;;;;;;11.68;1.45;;;1.80;99.90;;;;;;15503072;22;20024;-81
2023/03/28 04:37:52;;;;;;;18.33;2.58;;;1.70;99.90;;;;;;15504727;22;20473;-80
2023/03/28 04:43:54;;;;;;;15.63;2.40;;;1.60;99.90;;;;;;15501546;22;20016;-81
2023/03/28 04:49:57;;;;;;;7.05;1.73;;;1.40;99.90;;;;;;15507488;23;20024;-80
2023/03/28 04:55:59;;;;;;;9.55;1.52;;;1.50;99.90;;;;;;15508598;23;20032;-80
2023/03/28 05:02:01;;;;;;;9.52;1.55;;;1.50;99.90;;;;;;15511156;22;20017;-82
2023/03/28 05:08:03;;;;;;;10.68;1.73;;;1.60;99.90;;;;;;15504729;23;20095;-81
2023/03/28 05:14:06;;;;;;;13.98;1.95;;;1.60;99.90;;;;;;15505338;23;20462;-81
2023/03/28 05:20:09;;;;;;;8.82;1.60;;;1.50;99.90;;;;;;15504558;23;20472;-81
2023/03/28 05:26:14;;;;;;;11.52;1.60;;;1.70;99.90;;;;;;15508795;22;20051;-81
2023/03/28 05:32:17;;;;;;;11.27;1.73;;;1.70;99.90;;;;;;15505475;22;20046;-81
2023/03/28 05:38:20;;;;;;;13.18;1.85;;;1.80;99.90;;;;;;15503634;23;20024;-80
2023/03/28 05:44:22;;;;;;;11.23;1.88;;;1.80;99.90;;;;;;15505286;23;20024;-81
2023/03/28 05:50:25;;;;;;;10.57;1.40;;;1.80;99.90;;;;;;15503972;23;20016;-80
2023/03/28 05:56:27;;;;;;;10.35;1.83;;;1.70;99.90;;;;;;15502444;23;20451;-80
2023/03/28 06:02:29;;;;;;;12.32;2.13;;;1.90;99.90;;;;;;15505190;23;20070;-80
2023/03/28 06:08:31;;;;;;;11.63;1.50;;;1.90;99.90;;;;;;15504084;23;20454;-81
2023/03/28 06:14:33;;;;;;;9.57;1.77;;;1.90;99.90;;;;;;15503477;23;20081;-82
2023/03/28 06:20:35;;;;;;;12.13;1.95;;;2.00;99.90;;;;;;15506324;22;20044;-81
2023/03/28 06:26:37;;;;;;;7.18;1.45;;;2.00;99.90;;;;;;15497142;23;20401;-80
2023/03/28 06:32:39;;;;;;;11.45;1.80;;;2.10;99.90;;;;;;15483250;22;20106;-81
2023/03/28 06:38:42;;;;;;;14.48;2.13;;;2.10;99.90;;;;;;15499088;23;20024;-80
2023/03/28 06:44:44;;;;;;;12.90;2.08;;;2.10;99.90;;;;;;15504595;22;20019;-80
2023/03/28 06:50:49;;;;;;;8.65;1.45;;;2.00;99.90;;;;;;15503348;23;20121;-80
2023/03/28 06:56:51;;;;;;;16.15;2.08;;;2.20;99.90;;;;;;15506878;23;20035;-80
2023/03/28 07:02:52;;;;;;;16.42;2.63;;;2.30;99.90;;;;;;15512265;23;20030;-80
2023/03/28 07:08:58;;;;;;;10.82;2.00;;;2.70;99.90;;;;;;15511505;23;20081;-81
2023/03/28 07:15:00;;;;;;;13.27;1.75;;;2.90;99.90;;;;;;15515246;23;20044;-81
2023/03/28 07:21:07;;;;;;;14.05;2.10;;;3.10;99.90;;;;;;15481993;22;20024;-81
2023/03/28 07:27:09;;;;;;;11.52;2.03;;;3.40;99.90;;;;;;15501037;23;20012;-80
2023/03/28 07:33:17;;;;;;;11.55;2.03;;;3.60;99.90;;;;;;15520175;22;20463;-80
2023/03/28 07:39:28;;;;;;;19.73;3.83;;;3.80;99.90;;;;;;15504175;23;20020;-80
2023/03/28 07:45:31;;;;;;;15.35;1.85;;;3.90;99.90;;;;;;15499252;23;20044;-80
2023/03/28 07:51:32;;;;;;;9.23;1.65;;;3.90;99.90;;;;;;15500373;23;20217;-81
2023/03/28 07:57:35;;;;;;;13.57;2.22;;;3.90;99.90;;;;;;15499506;23;20074;-80
2023/03/28 08:03:38;;;;;;;10.45;1.90;;;4.00;99.90;;;;;;15503548;22;20036;-79
2023/03/28 08:09:40;;;;;;;8.52;1.73;;;4.40;99.90;;;;;;15503954;23;20075;-79
2023/03/28 08:15:42;;;;;;;14.45;2.20;;;4.40;99.90;;;;;;15497223;23;20050;-79
2023/03/28 08:21:44;;;;;;;9.27;1.98;;;4.70;99.90;;;;;;15498331;22;20024;-79
2023/03/28 08:27:46;;;;;;;15.27;1.88;;;4.60;99.90;;;;;;15503821;23;20378;-79
2023/03/28 08:33:51;;;;;;;7.93;1.40;;;4.60;99.90;;;;;;15493935;22;20044;-80
2023/03/28 08:39:54;;;;;;;14.55;2.95;;;4.90;99.90;;;;;;15505760;23;20031;-80
2023/03/28 08:45:58;;;;;;;8.80;1.38;;;4.90;99.90;;;;;;15495238;23;20067;-80
2023/03/28 08:52:02;;;;;;;12.13;2.17;;;5.10;99.90;;;;;;15496840;22;20039;-79
2023/03/28 08:58:04;;;;;;;11.80;1.75;;;5.50;99.90;;;;;;15496182;23;20019;-80
2023/03/28 09:04:07;;;;;;;9.48;1.60;;;5.70;99.90;;;;;;15500993;23;20055;-80
2023/03/28 09:10:15;;;;;;;12.05;2.08;;;5.90;99.90;;;;;;15497606;23;20020;-81
2023/03/28 09:16:34;;;;;;;14.48;1.95;;;5.90;99.90;;;;;;15496551;23;20112;-80
2023/03/28 09:22:54;;;;;;;9.13;1.30;;;6.40;99.90;;;;;;15497012;22;20506;-80
2023/03/28 09:29:02;;;;;;;11.77;1.40;;;6.60;99.90;;;;;;15504528;23;20081;-80
2023/03/28 09:35:15;;;;;;;8.25;1.50;;;6.30;99.90;;;;;;15501324;22;20168;-80
2023/03/28 09:41:51;;;;;;;9.38;1.35;;;6.10;99.90;;;;;;15503407;23;20020;-79
2023/03/28 09:47:54;;;;;;;10.65;1.30;;;6.10;99.90;;;;;;15492486;23;20024;-79
2023/03/28 09:53:56;;;;;;;10.73;1.58;;;6.20;99.90;;;;;;15491510;22;20393;-79
2023/03/28 10:00:05;;;;;;;6.80;1.35;;;6.10;99.90;;;;;;15504969;23;20040;-80
2023/03/28 10:06:30;;;;;;;13.52;1.48;;;6.80;99.90;;;;;;15496279;23;20020;-79
2023/03/28 10:12:37;;;;;;;6.65;1.42;;;6.40;99.90;;;;;;15497331;23;20024;-79
2023/03/28 10:18:41;;;;;;;8.90;1.33;;;6.00;99.90;;;;;;15496891;23;20017;-79
2023/03/28 10:24:46;;;;;;;8.27;0.90;;;6.50;99.90;;;;;;15496510;23;20079;-78
2023/03/28 10:30:56;;;;;;;6.15;1.00;;;7.40;99.90;;;;;;15504610;22;20020;-79
2023/03/28 10:36:59;;;;;;;4.15;1.10;;;7.00;99.90;;;;;;15496878;22;20522;-78
2023/03/28 10:43:01;;;;;;;5.10;1.30;;;7.60;99.90;;;;;;15483026;22;20091;-78
2023/03/28 10:49:12;;;;;;;9.38;1.27;;;7.80;99.90;;;;;;15500255;22;20031;-78
2023/03/28 10:55:22;;;;;;;6.40;1.25;;;8.30;99.90;;;;;;15501024;23;20479;-79
2023/03/28 11:01:32;;;;;;;3.83;1.10;;;8.30;99.90;;;;;;15502278;22;20024;-79
2023/03/28 11:07:49;;;;;;;6.00;1.10;;;8.60;99.90;;;;;;15501254;22;20025;-78
2023/03/28 11:14:12;;;;;;;8.13;1.40;;;9.00;99.90;;;;;;15503439;22;20870;-79
2023/03/28 11:20:30;;;;;;;8.82;1.30;;;8.30;99.90;;;;;;15500240;23;20457;-78
2023/03/28 11:26:57;;;;;;;3.90;0.90;;;7.90;99.90;;;;;;15499193;23;20101;-79
2023/03/28 11:33:21;;;;;;;5.65;1.20;;;7.90;99.90;;;;;;15489977;22;20032;-78
2023/03/28 11:39:33;;;;;;;6.15;1.17;;;7.50;99.90;;;;;;15505135;23;20024;-78
2023/03/28 11:45:59;;;;;;;7.95;1.80;;;7.20;99.90;;;;;;15509320;23;20025;-77
2023/03/28 11:52:27;;;;;;;5.00;1.40;;;7.20;99.90;;;;;;15499065;23;20028;-78
2023/03/28 11:58:34;;;;;;;6.28;1.38;;;7.30;99.90;;;;;;15504482;23;20017;-79
2023/03/28 12:04:45;;;;;;;3.65;1.00;;;7.30;99.90;;;;;;15478796;22;20150;-79
2023/03/28 12:10:58;;;;;;;7.72;1.20;;;6.90;99.90;;;;;;15496374;23;20557;-79
2023/03/28 12:17:09;;;;;;;4.70;1.35;;;6.90;99.90;;;;;;15499972;23;20024;-78
2023/03/28 12:23:21;;;;;;;7.40;1.15;;;7.00;99.90;;;;;;15486557;23;20027;-80
2023/03/28 12:29:35;;;;;;;5.65;1.08;;;7.30;99.90;;;;;;15488875;23;20146;-79
2023/03/28 12:35:47;;;;;;;4.20;0.97;;;7.50;99.90;;;;;;15497488;22;20120;-79
2023/03/28 12:41:51;;;;;;;3.38;1.05;;;7.40;99.90;;;;;;15499254;22;20024;-78
2023/03/28 12:48:01;;;;;;;5.97;1.15;;;7.60;99.90;;;;;;15507567;23;20394;-78
2023/03/28 12:54:14;;;;;;;3.70;0.95;;;8.10;99.90;;;;;;15507490;23;20048;-79
2023/03/28 13:00:25;;;;;;;7.13;1.20;;;7.90;99.90;;;;;;15509009;23;20024;-80
2023/03/28 13:06:56;;;;;;;4.60;1.13;;;8.50;99.90;;;;;;15510164;23;20020;-79
2023/03/28 13:13:41;;;;;;;4.07;1.00;;;8.70;99.90;;;;;;15501941;23;20301;-79
2023/03/28 13:19:46;;;;;;;5.70;1.13;;;9.40;99.90;;;;;;15504609;23;20481;-79
2023/03/28 13:25:57;;;;;;;5.45;1.10;;;9.30;99.90;;;;;;15504228;23;20087;-79
2023/03/28 13:32:03;;;;;;;6.00;1.20;;;8.80;99.90;;;;;;15506011;22;20102;-78
2023/03/28 13:38:21;;;;;;;2.83;1.05;;;8.70;99.90;;;;;;15504800;23;20547;-79
2023/03/28 13:44:31;;;;;;;6.55;1.50;;;8.60;99.90;;;;;;15503431;23;20044;-79
2023/03/28 13:50:36;;;;;;;4.90;1.40;;;8.50;99.90;;;;;;15492425;23;20032;-78
2023/03/28 13:56:43;;;;;;;7.55;1.52;;;8.60;99.90;;;;;;15506623;23;20074;-79
2023/03/28 14:02:48;;;;;;;4.95;1.23;;;8.40;99.90;;;;;;15505832;22;20051;-80
2023/03/28 14:08:56;;;;;;;9.90;1.38;;;8.10;99.90;;;;;;15506687;23;20020;-79
2023/03/28 14:15:01;;;;;;;7.18;1.63;;;8.40;99.90;;;;;;15507230;22;20028;-79
2023/03/28 14:21:06;;;;;;;4.28;1.30;;;8.30;99.90;;;;;;15509006;23;20066;-79
2023/03/28 14:27:12;;;;;;;6.45;2.03;;;8.40;99.90;;;;;;15517357;23;20472;-79
2023/03/28 14:33:19;;;;;;;6.78;1.95;;;8.30;99.90;;;;;;15528687;22;20085;-80
2023/03/28 14:39:21;;;;;;;6.43;1.50;;;8.00;99.90;;;;;;15547415;23;20035;-79
2023/03/28 14:45:28;;;;;;;11.50;1.95;;;8.10;99.90;;;;;;15557896;22;20039;-79
2023/03/28 14:51:40;;;;;;;5.72;1.42;;;8.20;99.90;;;;;;15561536;22;20028;-79
2023/03/28 14:57:42;;;;;;;8.38;1.80;;;8.30;99.90;;;;;;15526557;23;20016;-79
2023/03/28 15:03:50;;;;;;;9.02;2.10;;;8.20;99.90;;;;;;15513495;22;20024;-79
2023/03/28 15:10:03;;;;;;;7.90;2.28;;;8.40;99.90;;;;;;15515124;23;20342;-79
2023/03/28 15:16:07;;;;;;;6.35;1.90;;;8.40;99.90;;;;;;15507021;23;20032;-78
2023/03/28 15:22:13;;;;;;;8.73;1.93;;;8.80;99.90;;;;;;15502720;22;20017;-78
2023/03/28 15:28:17;;;;;;;7.43;2.00;;;8.30;99.90;;;;;;15510269;23;20058;-78
2023/03/28 15:34:21;;;;;;;9.43;1.70;;;8.80;99.90;;;;;;15508270;22;20110;-78
2023/03/28 15:40:26;;;;;;;10.65;1.70;;;8.50;99.90;;;;;;15516378;22;20449;-79
2023/03/28 15:46:31;;;;;;;5.05;1.48;;;8.40;99.90;;;;;;15505304;22;20100;-78
2023/03/28 15:52:34;;;;;;;6.93;1.70;;;8.50;99.90;;;;;;15508099;22;20051;-77
2023/03/28 15:58:42;;;;;;;8.73;1.60;;;8.20;99.90;;;;;;15503929;23;20070;-78
2023/03/28 16:05:24;;;;;;;6.47;1.70;;;7.80;99.90;;;;;;15505067;23;20028;-78
2023/03/28 16:11:26;;;;;;;9.00;1.70;;;7.70;99.90;;;;;;15504232;23;20478;-78
2023/03/28 16:17:30;;;;;;;7.55;1.60;;;7.70;99.90;;;;;;15506583;23;20027;-79
2023/03/28 16:23:32;;;;;;;4.07;1.50;;;7.70;99.90;;;;;;15506529;23;20024;-78
2023/03/28 16:29:34;;;;;;;5.38;1.55;;;7.80;99.90;;;;;;15508019;23;20031;-79
2023/03/28 16:35:36;;;;;;;7.60;1.52;;;7.70;99.90;;;;;;15483767;22;20402;-79
2023/03/28 16:41:38;;;;;;;4.40;1.45;;;7.40;99.90;;;;;;15497161;22;20334;-79
2023/03/28 16:47:40;;;;;;;6.28;1.48;;;7.30;99.90;;;;;;15494924;23;20012;-80
2023/03/28 16:53:43;;;;;;;3.88;1.20;;;7.20;99.90;;;;;;15493328;22;20028;-79
2023/03/28 16:59:45;;;;;;;5.10;1.50;;;7.20;99.90;;;;;;15499535;22;20105;-78
2023/03/28 17:05:47;;;;;;;5.60;1.38;;;7.00;99.90;;;;;;15495210;23;20146;-78
2023/03/28 17:11:49;;;;;;;4.47;1.40;;;6.90;99.90;;;;;;15496038;23;20513;-78
2023/03/28 17:17:51;;;;;;;6.05;1.45;;;6.80;99.90;;;;;;15495733;23;20122;-79
2023/03/28 17:23:54;;;;;;;4.80;1.35;;;6.80;99.90;;;;;;15491478;22;20599;-79
2023/03/28 17:29:56;;;;;;;6.18;1.42;;;6.70;99.90;;;;;;15496465;22;20024;-79
2023/03/28 17:35:58;;;;;;;4.95;1.40;;;6.50;99.90;;;;;;15495497;22;20103;-78
2023/03/28 17:42:01;;;;;;;9.15;1.67;;;6.40;99.90;;;;;;15497749;23;20300;-79
2023/03/28 17:48:03;;;;;;;7.40;1.58;;;6.30;99.90;;;;;;15498054;23;20023;-78
2023/03/28 17:54:10;;;;;;;5.72;1.45;;;6.30;99.90;;;;;;15497971;23;20027;-79
2023/03/28 18:00:14;;;;;;;6.72;1.25;;;6.20;99.90;;;;;;15494158;23;20692;-79
2023/03/28 18:06:16;;;;;;;4.97;1.20;;;6.20;99.90;;;;;;15497358;23;20032;-79
2023/03/28 18:12:18;;;;;;;4.47;1.40;;;6.10;99.90;;;;;;15497503;22;20026;-78
2023/03/28 18:18:20;;;;;;;8.40;1.75;;;6.10;99.90;;;;;;15501801;23;20031;-78
2023/03/28 18:24:22;;;;;;;6.55;1.75;;;6.00;99.90;;;;;;15504187;22;20070;-79
2023/03/28 18:30:24;;;;;;;5.20;1.42;;;5.90;99.90;;;;;;15507311;22;20074;-79
2023/03/28 18:36:26;;;;;;;7.30;1.40;;;5.90;99.90;;;;;;15494242;22;20106;-78
2023/03/28 18:42:30;;;;;;;11.88;2.28;;;5.90;99.90;;;;;;15494434;22;20327;-79
2023/03/28 18:48:33;;;;;;;9.35;2.42;;;5.80;99.90;;;;;;15495962;23;20028;-78
2023/03/28 18:54:36;;;;;;;6.40;2.00;;;5.70;99.90;;;;;;15497266;22;20043;-78
2023/03/28 19:00:39;;;;;;;11.90;2.38;;;5.70;99.90;;;;;;15499445;22;20377;-78
2023/03/28 19:06:41;;;;;;;10.35;2.78;;;5.70;99.90;;;;;;15497245;23;20016;-78
2023/03/28 19:12:43;;;;;;;11.57;2.55;;;5.70;99.90;;;;;;15501548;22;20016;-78
2023/03/28 19:18:48;;;;;;;5.68;2.10;;;5.70;99.90;;;;;;15498901;23;20094;-79
2023/03/28 19:24:50;;;;;;;3.88;1.38;;;5.60;99.90;;;;;;15505460;22;20016;-78
2023/03/28 19:30:57;;;;;;;8.30;1.88;;;5.60;99.90;;;;;;15500155;23;20362;-78
2023/03/28 19:36:59;;;;;;;6.50;2.30;;;5.40;99.90;;;;;;15494690;22;20024;-79
2023/03/28 19:43:01;;;;;;;4.07;1.80;;;5.50;99.90;;;;;;15500371;22;20016;-79
2023/03/28 19:49:05;;;;;;;7.03;1.70;;;5.60;99.90;;;;;;15494289;23;20016;-78
2023/03/28 19:55:07;;;;;;;7.87;1.77;;;5.60;99.90;;;;;;15500403;22;20024;-78
2023/03/28 20:01:09;;;;;;;7.70;2.40;;;5.50;99.90;;;;;;15497430;22;20024;-78
2023/03/28 20:07:11;;;;;;;6.88;1.73;;;5.70;99.90;;;;;;15493961;23;20028;-79
2023/03/28 20:13:14;;;;;;;5.35;1.77;;;5.80;99.90;;;;;;15496917;23;20070;-78
2023/03/28 20:19:16;;;;;;;5.68;1.73;;;5.70;99.90;;;;;;15487149;23;20066;-78
2023/03/28 20:25:18;;;;;;;8.07;1.73;;;5.80;99.90;;;;;;15500561;23;20031;-78
2023/03/28 20:31:21;;;;;;;7.68;2.08;;;5.80;99.90;;;;;;15498708;23;20082;-79
2023/03/28 20:37:23;;;;;;;8.68;2.88;;;5.80;99.90;;;;;;15502858;22;20645;-79
2023/03/28 20:43:28;;;;;;;6.35;2.25;;;5.80;99.90;;;;;;15503354;22;20032;-79
2023/03/28 20:49:30;;;;;;;4.35;1.83;;;5.70;99.90;;;;;;15502253;22;20050;-78
2023/03/28 20:55:33;;;;;;;7.47;2.33;;;5.70;99.90;;;;;;15497879;23;20454;-79
2023/03/28 21:01:44;;;;;;;10.63;2.22;;;5.60;99.90;;;;;;15497162;22;20039;-79
2023/03/28 21:07:46;;;;;;;4.40;1.77;;;5.60;99.90;;;;;;15502297;23;20107;-78
2023/03/28 21:13:49;;;;;;;5.97;1.90;;;5.70;99.90;;;;;;15500124;22;20146;-79
2023/03/28 21:19:52;;;;;;;3.95;1.75;;;5.70;99.90;;;;;;15503203;23;20024;-78
2023/03/28 21:25:54;;;;;;;6.75;2.03;;;5.70;99.90;;;;;;15493462;23;20039;-79
2023/03/28 21:31:56;;;;;;;6.43;2.40;;;5.70;99.90;;;;;;15497756;22;20024;-79
2023/03/28 21:37:58;;;;;;;9.88;2.15;;;5.80;99.90;;;;;;15436205;22;20016;-78
2023/03/28 21:44:00;;;;;;;7.40;2.00;;;5.80;99.90;;;;;;15399459;23;20548;-78
2023/03/28 21:50:04;;;;;;;5.95;1.95;;;5.80;99.90;;;;;;15400342;23;20021;-78
2023/03/28 21:56:07;;;;;;;6.68;1.58;;;5.80;99.90;;;;;;15402002;23;20028;-78
2023/03/28 22:02:09;;;;;;;3.65;1.48;;;5.90;99.90;;;;;;15405998;23;20123;-78
2023/03/28 22:08:11;;;;;;;4.03;1.40;;;5.90;99.90;;;;;;15424250;23;20024;-78
2023/03/28 22:14:14;;;;;;;15.55;1.85;;;6.00;99.90;;;;;;15422716;23;20040;-77
2023/03/28 22:20:17;;;;;;;9.73;1.48;;;5.90;99.90;;;;;;15428856;23;20100;-78
2023/03/28 22:26:19;;;;;;;7.10;1.50;;;6.00;99.90;;;;;;15400665;23;20099;-78
2023/03/28 22:32:21;;;;;;;4.45;1.30;;;6.00;99.90;;;;;;15424553;23;20039;-79
2023/03/28 22:38:24;;;;;;;6.10;1.42;;;6.00;99.90;;;;;;15467743;23;20095;-78
2023/03/28 22:44:26;;;;;;;4.50;1.48;;;6.00;99.90;;;;;;15476783;23;20223;-78
2023/03/28 22:50:28;;;;;;;3.92;1.30;;;6.10;99.90;;;;;;15503190;22;20031;-78
2023/03/28 22:56:30;;;;;;;5.22;1.85;;;6.00;99.90;;;;;;15479573;23;20035;-78
2023/03/28 23:02:33;;;;;;;4.95;1.40;;;6.00;99.90;;;;;;15506292;23;20016;-78
2023/03/28 23:08:34;;;;;;;7.25;1.77;;;6.00;99.90;;;;;;15479320;23;20027;-78
2023/03/28 23:14:36;;;;;;;5.68;1.80;;;5.90;99.90;;;;;;15480313;23;20032;-77
2023/03/28 23:20:38;;;;;;;5.53;2.00;;;5.90;99.90;;;;;;15480803;22;20477;-78
2023/03/28 23:26:41;;;;;;;5.03;1.92;;;6.00;99.90;;;;;;15481761;23;20525;-77
2023/03/28 23:32:43;;;;;;;6.97;2.40;;;5.90;99.90;;;;;;15480147;22;20339;-78
2023/03/28 23:38:46;;;;;;;7.70;2.20;;;5.80;99.90;;;;;;15511146;23;20027;-78
2023/03/28 23:44:49;;;;;;;5.03;2.20;;;5.90;99.90;;;;;;15509283;22;20020;-78
2023/03/28 23:50:50;;;;;;;5.90;2.20;;;5.80;99.90;;;;;;15505637;22;20103;-78
2023/03/28 23:56:52;;;;;;;3.95;2.22;;;5.70;99.90;;;;;;15502316;23;20020;-79
